createdAt,value
2019-06-01T00:05:16.570Z,100931.86
2019-06-01T00:15:20.164Z,100925.30
2019-06-01T00:25:23.736Z,100927.61
2019-06-01T00:35:27.317Z,100925.39
2019-06-01T00:45:30.930Z,100910.34
2019-06-01T00:55:34.551Z,100907.30
2019-06-01T01:05:38.870Z,100911.36
2019-06-01T01:15:42.629Z,100902.92
2019-06-01T01:25:46.389Z,100903.42
2019-06-01T01:35:49.969Z,100894.98
2019-06-01T01:45:54.736Z,100893.25
2019-06-01T01:55:59.080Z,100895.52
2019-06-01T02:06:03.372Z,100892.84
2019-06-01T02:16:07.035Z,100887.53
2019-06-01T02:26:10.585Z,100887.98
2019-06-01T02:36:14.165Z,100883.97
2019-06-01T02:46:17.747Z,100891.96
2019-06-01T02:56:21.324Z,100897.38
2019-06-01T03:06:24.895Z,100890.25
2019-06-01T03:16:29.657Z,100893.84
2019-06-01T03:26:33.428Z,100889.84
2019-06-01T03:36:36.995Z,100908.98
2019-06-01T03:46:40.569Z,100921.41
2019-06-01T03:56:44.163Z,100918.74
2019-06-01T04:06:47.736Z,100924.47
2019-06-01T04:16:51.289Z,100936.87
2019-06-01T04:26:54.905Z,100924.32
2019-06-01T04:36:58.513Z,100931.83
2019-06-01T04:47:02.101Z,100941.12
2019-06-01T04:57:06.765Z,100945.91
2019-06-01T05:07:11.202Z,100951.99
2019-06-01T05:17:16.551Z,100953.50
2019-06-01T05:27:20.332Z,100959.58
2019-06-01T05:37:23.918Z,100944.36
2019-06-01T05:47:27.535Z,100956.72
2019-06-01T05:57:31.092Z,100962.42
2019-06-01T06:07:34.665Z,100964.21
2019-06-01T06:17:38.271Z,100961.05
2019-06-01T06:27:41.865Z,100948.58
2019-06-01T06:37:45.448Z,100942.84
2019-06-01T06:47:49.037Z,100954.16
2019-06-01T06:57:52.632Z,100949.12
2019-06-01T07:07:56.177Z,100952.83
2019-06-01T07:17:59.749Z,100967.84
2019-06-01T07:28:03.312Z,100958.52
2019-06-01T07:38:06.927Z,100945.30
2019-06-01T07:48:10.493Z,100948.08
2019-06-01T07:58:14.114Z,100944.74
2019-06-01T08:08:17.717Z,100942.27
2019-06-01T08:18:21.934Z,100940.12
2019-06-01T08:28:26.503Z,100938.70
2019-06-01T08:38:31.675Z,100938.37
2019-06-01T08:48:35.876Z,100930.02
2019-06-01T08:58:42.387Z,100918.89
2019-06-01T09:08:48.579Z,100921.37
2019-06-01T09:18:55.369Z,100902.41
2019-06-01T09:29:03.125Z,100902.41
2019-06-01T09:39:11.474Z,100902.86
2019-06-01T09:49:17.385Z,100897.56
2019-06-01T09:59:22.543Z,100898.38
2019-06-01T10:09:29.476Z,100887.36
2019-06-01T10:19:35.185Z,100882.97
2019-06-01T10:29:43.080Z,100879.12
2019-06-01T10:39:51.020Z,100874.53
2019-06-01T10:49:55.772Z,100873.03
2019-06-01T10:59:59.876Z,100865.20
2019-06-01T11:10:04.862Z,100867.00
2019-06-01T11:20:08.812Z,100867.14
2019-06-01T11:30:12.838Z,100863.41
2019-06-01T11:40:16.532Z,100846.02
2019-06-01T11:50:20.980Z,100847.67
2019-06-01T12:00:24.548Z,100832.85
2019-06-01T12:10:28.157Z,100835.95
2019-06-01T12:20:31.705Z,100822.96
2019-06-01T12:30:35.359Z,100806.90
2019-06-01T12:40:39.154Z,100797.54
2019-06-01T12:50:46.695Z,100785.95
2019-06-01T13:00:48.363Z,100783.42
2019-06-01T13:10:52.015Z,100771.53
2019-06-01T13:20:56.051Z,100763.65
2019-06-01T13:30:59.881Z,100758.72
2019-06-01T13:41:06.023Z,100731.99
2019-06-01T13:51:11.233Z,100724.53
2019-06-01T14:01:15.069Z,100708.16
2019-06-01T14:11:18.615Z,100715.62
2019-06-01T14:21:22.299Z,100708.86
2019-06-01T14:31:25.868Z,100695.24
2019-06-01T14:41:29.475Z,100673.20
2019-06-01T14:51:33.345Z,100674.39
2019-06-01T15:01:37.001Z,100660.19
2019-06-01T15:11:40.568Z,100648.38
2019-06-01T15:21:44.149Z,100643.19
2019-06-01T15:31:47.759Z,100618.32
2019-06-01T15:41:52.890Z,100618.32
2019-06-01T15:51:57.738Z,100612.30
2019-06-01T16:02:01.472Z,100602.87
2019-06-01T16:12:05.790Z,100610.67
2019-06-01T16:22:09.329Z,100602.23
2019-06-01T16:32:12.916Z,100594.67
2019-06-01T16:42:16.508Z,100588.86
2019-06-01T16:52:20.097Z,100595.19
2019-06-01T17:02:23.700Z,100588.03
2019-06-01T17:12:27.295Z,100590.77
2019-06-01T17:22:30.910Z,100581.00
2019-06-01T17:32:34.505Z,100577.44
2019-06-01T17:42:38.602Z,100576.20
2019-06-01T17:52:42.477Z,100566.84
2019-06-01T18:02:46.659Z,100560.16
2019-06-01T18:12:50.711Z,100552.66
2019-06-01T18:22:56.608Z,100554.00
2019-06-01T18:33:00.948Z,100553.53
2019-06-01T18:43:12.071Z,100552.14
2019-06-01T18:53:17.024Z,100558.09
2019-06-01T19:03:21.072Z,100568.86
2019-06-01T19:13:25.889Z,100569.44
2019-06-01T19:23:30.173Z,100585.58
2019-06-01T19:33:34.369Z,100594.71
2019-06-01T19:43:38.758Z,100601.22
2019-06-01T19:53:42.983Z,100594.88
2019-06-01T20:03:47.079Z,100599.92
2019-06-01T20:13:51.435Z,100601.83
2019-06-01T20:23:56.175Z,100600.71
2019-06-01T20:34:00.775Z,100603.45
2019-06-01T20:44:06.184Z,100601.36
2019-06-01T20:54:12.899Z,100597.09
2019-06-01T21:04:18.035Z,100600.44
2019-06-01T21:14:21.759Z,100605.44
2019-06-01T21:24:25.500Z,100614.06
2019-06-01T21:34:29.055Z,100617.44
2019-06-01T21:44:32.693Z,100621.97
2019-06-01T21:54:36.337Z,100625.88
2019-06-01T22:04:39.919Z,100625.14
2019-06-01T22:14:43.869Z,100622.67
2019-06-01T22:24:47.687Z,100615.27
2019-06-01T22:34:51.379Z,100615.85
2019-06-01T22:44:55.348Z,100616.37
2019-06-01T22:54:58.976Z,100609.92
2019-06-01T23:05:02.632Z,100606.94
2019-06-01T23:15:07.325Z,100605.27
2019-06-01T23:25:10.915Z,100594.30
2019-06-01T23:35:14.540Z,100594.89
2019-06-01T23:45:18.089Z,100586.09
2019-06-01T23:55:21.667Z,100588.06
